Time;durP1;ratioP1;P1;durP2;ratioP2;P2;SDS_P1;SDS_P2;PMS_P1;PMS_P2;Temp;Humidity;BMP_temperature;BMP_pressure;BME280_temperature;BME280_humidity;BME280_pressure;Samples;Min_cycle;Max_cycle;Signal;HPM_P1;HPM_P2
2021/12/04 00:00:54;;;;;;;0.40;0.40;;;3.40;99.90;;;;;;5015809;28;20670;-82
2021/12/04 00:03:22;;;;;;;1.10;1.02;;;3.50;99.90;;;;;;5016105;28;20223;-81
2021/12/04 00:05:52;;;;;;;3.50;1.88;;;3.40;99.90;;;;;;5016701;28;20393;-80
2021/12/04 00:08:21;;;;;;;0.40;0.40;;;3.50;99.90;;;;;;5016172;28;20673;-81
2021/12/04 00:10:48;;;;;;;0.40;0.30;;;3.50;99.90;;;;;;5015783;28;20219;-80
2021/12/04 00:13:14;;;;;;;0.60;0.60;;;3.50;99.90;;;;;;5016229;28;20212;-83
2021/12/04 00:15:41;;;;;;;0.70;0.70;;;3.50;99.90;;;;;;5016743;28;20206;-81
2021/12/04 00:18:08;;;;;;;0.90;0.90;;;3.50;99.90;;;;;;5016809;28;20199;-81
2021/12/04 00:20:38;;;;;;;0.50;0.40;;;3.50;99.90;;;;;;5015937;28;20231;-81
2021/12/04 00:23:07;;;;;;;0.65;0.63;;;3.50;99.90;;;;;;5015886;28;20192;-81
2021/12/04 00:25:34;;;;;;;0.57;0.57;;;3.50;99.90;;;;;;5015177;28;20199;-81
2021/12/04 00:28:01;;;;;;;0.40;0.40;;;3.50;99.90;;;;;;5015550;28;20193;-79
2021/12/04 00:30:28;;;;;;;0.40;0.40;;;3.50;99.90;;;;;;5016286;28;20192;-81
2021/12/04 00:32:59;;;;;;;0.40;0.30;;;3.40;99.90;;;;;;5016183;28;20219;-81
2021/12/04 00:35:36;;;;;;;0.55;0.55;;;3.40;99.90;;;;;;5016263;28;20235;-81
2021/12/04 00:49:11;;;;;;;0.40;0.40;;;3.50;99.90;;;;;;5015669;28;20722;-79
2021/12/04 00:51:39;;;;;;;0.75;0.75;;;3.50;99.90;;;;;;5016083;28;20179;-79
2021/12/04 00:54:10;;;;;;;0.45;0.45;;;3.50;99.90;;;;;;5015390;28;20234;-81
2021/12/04 00:56:37;;;;;;;0.40;0.40;;;3.50;99.90;;;;;;5015436;28;20202;-80
2021/12/04 00:59:04;;;;;;;0.80;0.50;;;3.50;99.90;;;;;;5015444;28;20795;-82
2021/12/04 01:01:32;;;;;;;1.33;1.23;;;3.50;99.90;;;;;;5015475;28;20206;-80
2021/12/04 01:03:58;;;;;;;0.50;0.50;;;3.50;99.90;;;;;;5015466;28;20580;-82
2021/12/04 01:06:25;;;;;;;2.67;2.15;;;3.50;99.90;;;;;;5016011;28;20195;-82
2021/12/04 01:08:52;;;;;;;0.50;0.40;;;3.50;99.90;;;;;;5015029;28;20205;-83
2021/12/04 01:11:20;;;;;;;0.40;0.35;;;3.50;99.90;;;;;;5014867;28;20204;-82
2021/12/04 01:13:47;;;;;;;0.40;0.30;;;3.50;99.90;;;;;;5015152;28;20220;-82
2021/12/04 01:16:14;;;;;;;0.40;0.32;;;3.60;99.90;;;;;;5015618;28;20199;-82
2021/12/04 01:18:43;;;;;;;0.60;0.60;;;3.60;99.90;;;;;;5015339;28;20207;-82
2021/12/04 01:21:10;;;;;;;0.45;0.45;;;3.50;99.90;;;;;;5014540;28;20199;-82
2021/12/04 01:23:37;;;;;;;0.40;0.40;;;3.50;99.90;;;;;;5015337;28;20212;-81
2021/12/04 01:26:03;;;;;;;1.40;1.30;;;3.60;99.90;;;;;;5015540;28;20196;-82
2021/12/04 01:28:32;;;;;;;1.13;1.05;;;3.60;99.90;;;;;;5014616;28;20677;-81
2021/12/04 01:30:58;;;;;;;3.33;0.70;;;3.60;99.90;;;;;;5014662;28;20207;-82
2021/12/04 01:33:26;;;;;;;2.38;1.05;;;3.60;99.90;;;;;;5014270;28;20224;-81
2021/12/04 01:35:53;;;;;;;0.40;0.40;;;3.60;99.90;;;;;;5015547;28;20198;-81
2021/12/04 01:38:19;;;;;;;0.60;0.60;;;3.60;99.90;;;;;;5015447;28;20202;-82
2021/12/04 01:40:46;;;;;;;0.60;0.50;;;3.60;99.90;;;;;;5015158;28;20215;-83
2021/12/04 01:43:13;;;;;;;0.40;0.30;;;3.60;99.90;;;;;;5015342;28;20212;-82
2021/12/04 01:45:41;;;;;;;0.40;0.30;;;3.60;99.90;;;;;;5015166;28;20237;-81
2021/12/04 01:48:08;;;;;;;0.40;0.40;;;3.70;99.90;;;;;;5015204;28;20196;-81
2021/12/04 01:50:35;;;;;;;0.40;0.30;;;3.70;99.90;;;;;;5014935;28;20589;-82
2021/12/04 01:53:03;;;;;;;2.25;2.15;;;3.70;99.90;;;;;;5015295;28;20703;-82
2021/12/04 01:55:32;;;;;;;0.47;0.47;;;3.70;99.90;;;;;;5015080;28;20191;-82
2021/12/04 01:58:01;;;;;;;0.40;0.30;;;3.70;99.90;;;;;;5015650;28;20211;-82
2021/12/04 02:00:28;;;;;;;0.40;0.40;;;3.70;99.90;;;;;;5014856;28;20200;-84
2021/12/04 02:02:57;;;;;;;2.60;2.40;;;3.70;99.90;;;;;;5014790;28;20571;-84
2021/12/04 02:05:24;;;;;;;0.40;0.30;;;3.70;99.90;;;;;;5015180;28;20192;-84
2021/12/04 02:07:50;;;;;;;0.57;0.57;;;3.80;99.90;;;;;;5015568;28;20200;-82
2021/12/04 02:10:17;;;;;;;0.75;0.57;;;3.80;99.90;;;;;;5014981;28;20203;-82
2021/12/04 02:12:44;;;;;;;0.75;0.75;;;3.70;99.90;;;;;;5014622;28;20196;-83
2021/12/04 02:15:13;;;;;;;0.40;0.30;;;3.70;99.90;;;;;;5014275;28;20227;-81
2021/12/04 02:17:40;;;;;;;0.40;0.30;;;3.70;99.90;;;;;;5015033;28;20204;-82
2021/12/04 02:20:15;;;;;;;0.90;0.40;;;3.70;99.90;;;;;;5014448;28;20196;-84
2021/12/04 02:22:42;;;;;;;10.63;0.95;;;3.70;99.90;;;;;;5015292;28;20663;-81
2021/12/04 02:25:10;;;;;;;0.98;0.98;;;3.80;99.90;;;;;;5017586;28;20212;-81
2021/12/04 02:27:37;;;;;;;0.68;0.68;;;3.80;99.90;;;;;;5018473;28;20214;-81
2021/12/04 02:30:05;;;;;;;0.40;0.40;;;3.80;99.90;;;;;;5018606;28;20196;-77
2021/12/04 02:32:32;;;;;;;0.85;0.73;;;3.80;99.90;;;;;;5017631;28;20202;-83
2021/12/04 02:34:59;;;;;;;0.75;0.75;;;3.80;99.90;;;;;;5017683;28;20222;-81
2021/12/04 02:37:27;;;;;;;0.40;0.30;;;3.80;99.90;;;;;;5018427;28;20200;-84
2021/12/04 02:39:58;;;;;;;0.40;0.40;;;3.80;99.90;;;;;;5017738;28;20203;-83
2021/12/04 02:42:29;;;;;;;0.40;0.30;;;3.90;99.90;;;;;;5018652;28;20227;-81
2021/12/04 02:44:57;;;;;;;0.60;0.57;;;3.90;99.90;;;;;;5018330;28;20216;-79
2021/12/04 02:47:24;;;;;;;0.55;0.55;;;3.90;99.90;;;;;;5018023;28;20192;-82
2021/12/04 02:49:51;;;;;;;0.40;0.40;;;3.90;99.90;;;;;;5017794;28;20585;-81
2021/12/04 02:52:20;;;;;;;0.40;0.40;;;3.90;99.90;;;;;;5017974;28;20192;-82
2021/12/04 02:54:49;;;;;;;0.95;0.95;;;3.90;99.90;;;;;;5017303;28;20223;-83
2021/12/04 02:57:18;;;;;;;0.40;0.40;;;3.90;99.90;;;;;;5017667;28;20200;-80
2021/12/04 02:59:45;;;;;;;0.40;0.30;;;4.00;99.90;;;;;;5017792;28;20246;-81
2021/12/04 03:02:17;;;;;;;0.40;0.38;;;4.00;99.90;;;;;;5017675;28;20278;-81
2021/12/04 03:04:45;;;;;;;0.40;0.30;;;4.00;99.90;;;;;;5017060;28;20215;-81
2021/12/04 03:07:12;;;;;;;0.40;0.40;;;4.00;99.90;;;;;;5017565;28;20712;-83
2021/12/04 03:09:39;;;;;;;1.25;1.25;;;4.00;99.90;;;;;;5017071;28;20573;-82
2021/12/04 03:12:09;;;;;;;2.10;1.10;;;4.00;99.90;;;;;;5016758;28;20224;-79
2021/12/04 03:14:36;;;;;;;0.40;0.40;;;4.00;99.90;;;;;;5017021;28;20216;-81
2021/12/04 03:17:03;;;;;;;0.40;0.40;;;3.90;99.90;;;;;;5017275;28;20196;-81
2021/12/04 03:19:30;;;;;;;2.25;2.15;;;3.90;99.90;;;;;;5016155;28;20192;-80
2021/12/04 03:21:57;;;;;;;0.70;0.70;;;3.90;99.90;;;;;;5016588;28;20196;-78
2021/12/04 03:24:25;;;;;;;1.48;1.38;;;3.90;99.90;;;;;;5016895;28;20246;-81
2021/12/04 03:26:52;;;;;;;0.40;0.40;;;3.90;99.90;;;;;;5016908;28;20203;-82
2021/12/04 03:29:23;;;;;;;0.90;0.90;;;3.90;99.90;;;;;;5015673;28;20202;-82
2021/12/04 03:32:13;;;;;;;1.05;0.93;;;3.90;99.90;;;;;;5016586;28;20238;-82
2021/12/04 03:40:23;;;;;;;0.40;0.30;;;3.90;99.90;;;;;;5016119;28;20194;-81
2021/12/04 03:42:52;;;;;;;0.40;0.40;;;3.90;99.90;;;;;;5016430;28;20638;-79
2021/12/04 03:45:21;;;;;;;1.30;1.02;;;3.90;99.90;;;;;;5015997;28;20200;-81
2021/12/04 03:47:49;;;;;;;0.40;0.40;;;3.90;99.90;;;;;;5016131;28;20194;-80
2021/12/04 03:50:17;;;;;;;0.50;0.50;;;3.90;99.90;;;;;;5015833;28;20670;-80
2021/12/04 03:52:43;;;;;;;1.13;1.05;;;3.90;99.90;;;;;;5016921;28;20683;-81
2021/12/04 03:55:11;;;;;;;5.65;1.15;;;3.90;99.90;;;;;;5016243;28;20219;-81
2021/12/04 03:57:44;;;;;;;0.50;0.50;;;3.90;99.90;;;;;;5015419;28;20199;-80
2021/12/04 04:00:12;;;;;;;0.40;0.30;;;4.00;99.90;;;;;;5015807;28;20185;-81
2021/12/04 04:02:40;;;;;;;0.40;0.40;;;4.00;99.90;;;;;;5016463;28;20209;-80
2021/12/04 04:05:08;;;;;;;0.50;0.50;;;4.00;99.90;;;;;;5015405;28;20223;-80
2021/12/04 04:07:35;;;;;;;0.65;0.65;;;4.00;99.90;;;;;;5015469;28;20199;-80
2021/12/04 04:10:01;;;;;;;0.50;0.43;;;4.00;99.90;;;;;;5015512;28;20283;-82
2021/12/04 04:12:28;;;;;;;0.47;0.43;;;4.00;99.90;;;;;;5017136;28;20196;-81
2021/12/04 04:14:55;;;;;;;0.40;0.38;;;4.00;99.90;;;;;;5016983;28;20223;-81
2021/12/04 04:17:22;;;;;;;1.38;0.65;;;4.00;99.90;;;;;;5017312;28;20202;-81
2021/12/04 04:19:50;;;;;;;0.47;0.45;;;4.00;99.90;;;;;;5015514;28;20195;-81
2021/12/04 04:22:17;;;;;;;7.50;1.65;;;4.00;99.90;;;;;;5016084;28;20192;-81
2021/12/04 04:24:44;;;;;;;0.40;0.40;;;3.90;99.90;;;;;;5015953;28;20211;-81
2021/12/04 04:27:11;;;;;;;0.50;0.50;;;4.00;99.90;;;;;;5016100;28;20196;-83
2021/12/04 04:29:37;;;;;;;0.40;0.32;;;4.10;99.90;;;;;;5014949;28;20200;-80
2021/12/04 04:32:05;;;;;;;0.85;0.85;;;4.00;99.90;;;;;;5015142;28;20204;-80
2021/12/04 04:34:33;;;;;;;0.40;0.30;;;4.10;99.90;;;;;;5015754;28;20228;-82
2021/12/04 04:37:10;;;;;;;0.40;0.30;;;4.10;99.90;;;;;;5015538;28;20196;-76
2021/12/04 04:59:14;;;;;;;1.52;1.40;;;4.20;99.90;;;;;;5015599;28;20176;-81
2021/12/04 05:10:21;;;;;;;0.50;0.50;;;4.20;99.90;;;;;;5015310;28;20321;-82
2021/12/04 05:12:51;;;;;;;0.40;0.30;;;4.20;99.90;;;;;;5015374;28;20204;-82
2021/12/04 05:15:23;;;;;;;1.05;1.05;;;4.20;99.90;;;;;;5015265;28;20761;-83
2021/12/04 05:18:06;;;;;;;1.05;1.02;;;4.20;99.90;;;;;;5016147;28;20180;-82
2021/12/04 05:20:35;;;;;;;0.40;0.30;;;4.20;99.90;;;;;;5015615;28;20186;-82
2021/12/04 05:23:02;;;;;;;0.40;0.30;;;4.30;99.90;;;;;;5015420;28;20204;-81
2021/12/04 05:25:31;;;;;;;0.40;0.30;;;4.30;99.90;;;;;;5015733;28;20188;-82
2021/12/04 05:27:58;;;;;;;0.40;0.35;;;4.20;99.90;;;;;;5015445;28;20609;-82
2021/12/04 05:30:25;;;;;;;0.40;0.40;;;4.30;99.90;;;;;;5015588;28;20206;-84
2021/12/04 05:32:52;;;;;;;1.45;1.10;;;4.30;99.90;;;;;;5015206;28;20207;-82
2021/12/04 05:35:19;;;;;;;0.50;0.50;;;4.20;99.90;;;;;;5046075;22;20222;-78
2021/12/04 05:37:45;;;;;;;0.50;0.50;;;4.20;99.90;;;;;;5031617;28;20201;-75
2021/12/04 05:40:14;;;;;;;0.50;0.40;;;4.20;99.90;;;;;;5031586;28;20656;-78
2021/12/04 05:42:42;;;;;;;1.52;1.10;;;4.20;99.90;;;;;;5031902;28;20199;-78
2021/12/04 05:45:16;;;;;;;0.40;0.30;;;4.20;99.90;;;;;;5031265;28;20215;-77
2021/12/04 05:47:46;;;;;;;0.40;0.40;;;4.20;99.90;;;;;;5031759;28;20199;-75
2021/12/04 05:50:23;;;;;;;0.88;0.88;;;4.20;99.90;;;;;;5031059;28;20202;-78
2021/12/04 05:53:03;;;;;;;0.40;0.30;;;4.20;99.90;;;;;;5031680;28;20198;-75
2021/12/04 05:55:31;;;;;;;0.55;0.50;;;4.20;99.90;;;;;;5031740;28;20222;-78
2021/12/04 05:57:59;;;;;;;0.40;0.40;;;4.20;99.90;;;;;;5033106;28;20211;-78
2021/12/04 06:00:27;;;;;;;0.40;0.40;;;4.20;99.90;;;;;;5035429;28;20198;-78
2021/12/04 06:02:54;;;;;;;0.40;0.40;;;4.30;99.90;;;;;;5035190;28;20676;-78
2021/12/04 06:05:21;;;;;;;0.40;0.32;;;4.30;99.90;;;;;;5035233;28;20215;-78
2021/12/04 06:07:47;;;;;;;0.40;0.30;;;4.30;99.90;;;;;;5035176;28;20561;-79
2021/12/04 06:10:14;;;;;;;0.40;0.30;;;4.30;99.90;;;;;;5034990;28;20215;-78
2021/12/04 06:12:41;;;;;;;1.50;1.50;;;4.30;99.90;;;;;;5034969;28;20191;-78
2021/12/04 06:15:10;;;;;;;0.85;0.85;;;4.30;99.90;;;;;;5035277;28;20219;-78
2021/12/04 06:17:37;;;;;;;0.40;0.40;;;4.30;99.90;;;;;;5035146;28;20561;-78
2021/12/04 06:22:49;;;;;;;0.63;0.63;;;4.30;99.90;;;;;;5034668;28;20276;-78
2021/12/04 06:25:19;;;;;;;0.40;0.30;;;4.30;99.90;;;;;;5035120;28;20700;-78
2021/12/04 06:27:47;;;;;;;0.40;0.30;;;4.30;99.90;;;;;;5034537;28;20695;-78
2021/12/04 06:30:18;;;;;;;0.50;0.50;;;4.30;99.90;;;;;;5034997;28;20664;-79
2021/12/04 06:32:47;;;;;;;0.40;0.40;;;4.30;99.90;;;;;;5034902;28;20286;-78
2021/12/04 06:35:14;;;;;;;0.40;0.40;;;4.30;99.90;;;;;;5034270;28;20684;-78
2021/12/04 06:37:41;;;;;;;0.40;0.40;;;4.30;99.90;;;;;;5034725;28;20199;-78
2021/12/04 06:40:12;;;;;;;0.40;0.30;;;4.30;99.90;;;;;;5034477;28;20195;-78
2021/12/04 06:42:40;;;;;;;0.40;0.40;;;4.30;99.90;;;;;;5034199;28;20582;-78
2021/12/04 06:45:08;;;;;;;0.80;0.77;;;4.30;99.90;;;;;;5034941;28;20222;-76
2021/12/04 06:47:38;;;;;;;0.40;0.40;;;4.30;99.90;;;;;;5034838;28;20291;-78
2021/12/04 06:50:10;;;;;;;0.40;0.40;;;4.30;99.90;;;;;;5034348;28;20256;-78
2021/12/04 06:52:40;;;;;;;0.40;0.40;;;4.30;99.90;;;;;;5034113;28;20238;-78
2021/12/04 06:55:08;;;;;;;0.40;0.30;;;4.30;99.90;;;;;;5034470;28;20742;-78
2021/12/04 06:57:38;;;;;;;0.40;0.40;;;4.30;99.90;;;;;;5034169;28;20191;-79
2021/12/04 07:00:10;;;;;;;0.40;0.40;;;4.30;99.90;;;;;;5034489;28;20175;-79
2021/12/04 07:02:38;;;;;;;0.70;0.40;;;4.30;99.90;;;;;;5033989;28;20198;-78
2021/12/04 07:05:05;;;;;;;0.50;0.50;;;4.30;99.90;;;;;;5034264;28;20215;-78
2021/12/04 07:07:32;;;;;;;0.40;0.30;;;4.30;99.90;;;;;;5033977;28;20204;-78
2021/12/04 07:09:59;;;;;;;1.42;1.35;;;4.30;99.90;;;;;;5033075;28;20199;-78
2021/12/04 07:12:25;;;;;;;0.60;0.60;;;4.30;99.90;;;;;;5034019;28;20199;-79
2021/12/04 07:14:52;;;;;;;0.77;0.50;;;4.40;99.90;;;;;;5034096;28;20219;-77
2021/12/04 07:17:19;;;;;;;0.95;0.90;;;4.40;99.90;;;;;;5034166;28;20195;-77
2021/12/04 07:19:47;;;;;;;1.23;1.23;;;4.40;99.90;;;;;;5033912;28;20374;-75
2021/12/04 07:22:14;;;;;;;4.30;1.75;;;4.40;99.90;;;;;;5034123;28;20763;-75
2021/12/04 07:24:40;;;;;;;0.40;0.38;;;4.40;99.90;;;;;;5033789;28;20222;-76
2021/12/04 07:27:07;;;;;;;0.43;0.38;;;4.50;99.90;;;;;;5033714;28;20553;-76
2021/12/04 07:29:34;;;;;;;0.40;0.40;;;4.40;99.90;;;;;;5033132;28;20278;-77
2021/12/04 07:32:01;;;;;;;0.40;0.40;;;4.50;99.90;;;;;;5034129;28;20604;-79
2021/12/04 07:34:27;;;;;;;0.47;0.43;;;4.50;99.90;;;;;;5033189;28;20250;-77
2021/12/04 07:36:56;;;;;;;0.50;0.50;;;4.50;99.90;;;;;;5033604;28;20222;-77
2021/12/04 07:39:22;;;;;;;0.40;0.40;;;4.60;99.90;;;;;;5033743;28;20565;-77
2021/12/04 07:41:49;;;;;;;0.40;0.40;;;4.60;99.90;;;;;;5033508;28;20214;-74
2021/12/04 07:44:16;;;;;;;0.40;0.40;;;4.50;99.90;;;;;;5033061;28;20592;-77
2021/12/04 07:46:43;;;;;;;0.82;0.68;;;4.50;99.90;;;;;;5033738;28;20188;-73
2021/12/04 07:49:09;;;;;;;1.83;1.73;;;4.50;99.90;;;;;;5033226;28;20200;-77
2021/12/04 07:51:36;;;;;;;0.60;0.60;;;4.50;99.90;;;;;;5033164;28;20198;-78
2021/12/04 07:54:05;;;;;;;0.40;0.40;;;4.50;99.90;;;;;;5033328;28;20219;-77
2021/12/04 07:56:32;;;;;;;0.40;0.40;;;4.50;99.90;;;;;;5033272;28;20222;-77
2021/12/04 07:58:59;;;;;;;1.15;1.10;;;4.50;99.90;;;;;;5032893;28;20221;-77
2021/12/04 08:01:26;;;;;;;0.77;0.77;;;4.60;99.90;;;;;;5033578;28;20282;-76
2021/12/04 08:03:53;;;;;;;0.40;0.40;;;4.60;99.90;;;;;;5032982;28;20200;-78
2021/12/04 08:06:19;;;;;;;0.40;0.30;;;4.60;99.90;;;;;;5033175;28;20196;-77
2021/12/04 08:08:46;;;;;;;3.63;0.60;;;4.60;99.90;;;;;;5033316;28;20199;-74
2021/12/04 08:11:15;;;;;;;0.40;0.30;;;4.60;99.90;;;;;;5032813;28;20195;-77
2021/12/04 08:13:43;;;;;;;0.40;0.35;;;4.50;99.90;;;;;;5032286;28;20210;-77
2021/12/04 08:16:10;;;;;;;0.40;0.40;;;4.50;99.90;;;;;;5032991;28;20219;-79
2021/12/04 08:18:36;;;;;;;0.40;0.30;;;4.60;99.90;;;;;;5033234;28;20569;-77
2021/12/04 08:21:03;;;;;;;0.40;0.40;;;4.60;99.90;;;;;;5032377;28;20199;-77
2021/12/04 08:23:30;;;;;;;0.40;0.30;;;4.60;99.90;;;;;;5033046;28;20207;-77
2021/12/04 08:25:57;;;;;;;1.95;1.75;;;4.60;99.90;;;;;;5032851;28;20214;-77
2021/12/04 08:28:25;;;;;;;0.40;0.30;;;4.70;99.90;;;;;;5032466;28;20203;-77
2021/12/04 08:30:52;;;;;;;0.50;0.40;;;4.70;99.90;;;;;;5033338;28;20198;-77
2021/12/04 08:33:19;;;;;;;0.40;0.40;;;4.80;99.90;;;;;;5033913;28;20195;-77
2021/12/04 08:35:46;;;;;;;0.40;0.40;;;4.80;99.90;;;;;;5033801;28;20223;-77
2021/12/04 08:38:14;;;;;;;0.60;0.40;;;4.80;99.90;;;;;;5033821;28;20208;-77
2021/12/04 08:40:41;;;;;;;0.40;0.30;;;4.80;99.90;;;;;;5033772;28;20562;-76
2021/12/04 08:43:08;;;;;;;1.00;1.00;;;4.80;99.90;;;;;;5033289;28;20231;-76
2021/12/04 08:45:37;;;;;;;2.67;2.25;;;4.90;99.90;;;;;;5033492;28;20214;-77
2021/12/04 08:48:04;;;;;;;0.40;0.40;;;4.90;99.90;;;;;;5033291;28;20199;-77
2021/12/04 08:50:32;;;;;;;3.95;0.88;;;4.80;99.90;;;;;;5033074;28;20192;-77
2021/12/04 08:53:00;;;;;;;0.50;0.40;;;4.80;99.90;;;;;;5033132;28;20206;-77
2021/12/04 08:55:29;;;;;;;0.90;0.90;;;4.80;99.90;;;;;;5032551;28;20604;-77
2021/12/04 08:57:56;;;;;;;0.50;0.45;;;4.90;99.90;;;;;;5032087;28;20222;-77
2021/12/04 09:00:27;;;;;;;0.60;0.45;;;5.00;99.90;;;;;;5031837;28;20203;-78
2021/12/04 09:02:56;;;;;;;0.40;0.40;;;5.00;99.90;;;;;;5032369;28;20549;-76
2021/12/04 09:05:23;;;;;;;0.88;0.82;;;5.00;99.90;;;;;;5032282;28;20697;-77
2021/12/04 09:07:53;;;;;;;0.40;0.30;;;4.90;99.90;;;;;;5031741;28;20672;-76
2021/12/04 09:10:21;;;;;;;0.40;0.40;;;4.90;99.90;;;;;;5031691;28;20191;-77
2021/12/04 09:12:49;;;;;;;0.50;0.40;;;4.90;99.90;;;;;;5032143;28;20214;-77
2021/12/04 09:15:20;;;;;;;0.40;0.40;;;4.90;99.90;;;;;;5031616;28;20211;-77
2021/12/04 09:17:46;;;;;;;0.40;0.40;;;5.00;99.90;;;;;;5032092;28;20179;-77
2021/12/04 09:20:16;;;;;;;0.40;0.30;;;5.00;99.90;;;;;;5032041;28;20573;-77
2021/12/04 09:22:43;;;;;;;0.50;0.50;;;5.10;99.90;;;;;;5032002;28;20191;-77
2021/12/04 09:25:15;;;;;;;0.40;0.30;;;5.20;99.90;;;;;;5031703;28;20305;-78
2021/12/04 09:27:58;;;;;;;0.40;0.30;;;5.20;99.90;;;;;;5031591;28;20203;-77
2021/12/04 10:00:47;;;;;;;0.50;0.40;;;5.30;99.90;;;;;;5031304;28;20644;-77
2021/12/04 10:12:06;;;;;;;0.50;0.47;;;6.10;99.90;;;;;;5031424;28;20179;-77
2021/12/04 10:14:53;;;;;;;0.47;0.35;;;6.30;99.90;;;;;;5031245;28;20261;-77
2021/12/04 10:17:45;;;;;;;0.95;0.95;;;6.30;99.90;;;;;;5031242;28;20238;-77
2021/12/04 10:20:25;;;;;;;0.50;0.40;;;6.40;99.90;;;;;;5030429;28;20205;-78
2021/12/04 10:23:13;;;;;;;0.50;0.40;;;6.40;99.90;;;;;;5031409;28;20195;-74
2021/12/04 10:34:14;;;;;;;2.05;0.85;;;6.60;99.90;;;;;;5030655;28;20226;-77
2021/12/04 10:36:41;;;;;;;0.77;0.77;;;6.60;99.90;;;;;;5031385;28;20589;-78
2021/12/04 10:39:11;;;;;;;0.50;0.40;;;6.50;99.90;;;;;;5030978;28;20196;-77
2021/12/04 10:41:42;;;;;;;1.60;1.50;;;6.50;99.90;;;;;;5031473;28;20591;-76
2021/12/04 10:44:13;;;;;;;0.50;0.40;;;6.40;99.90;;;;;;5030677;28;20211;-77
2021/12/04 10:46:40;;;;;;;0.50;0.40;;;6.40;99.90;;;;;;5035030;28;20189;-79
2021/12/04 10:49:13;;;;;;;0.52;0.52;;;6.30;99.90;;;;;;5034467;28;20453;-77
2021/12/04 10:51:47;;;;;;;1.60;1.50;;;6.40;99.90;;;;;;5033981;28;20204;-77
2021/12/04 10:54:18;;;;;;;0.50;0.40;;;6.50;99.90;;;;;;5034370;28;20223;-77
2021/12/04 10:57:02;;;;;;;0.50;0.40;;;6.50;99.90;;;;;;5033992;28;20218;-75
2021/12/04 10:59:43;;;;;;;1.00;0.50;;;6.60;99.90;;;;;;5034108;28;20205;-77
2021/12/04 11:02:17;;;;;;;0.50;0.40;;;6.60;99.90;;;;;;5034604;28;20251;-74
2021/12/04 11:04:47;;;;;;;3.17;0.45;;;6.60;99.90;;;;;;5033916;28;20219;-77
2021/12/04 11:18:51;;;;;;;0.50;0.40;;;6.50;99.90;;;;;;5034371;28;20203;-77
2021/12/04 11:24:34;;;;;;;0.50;0.40;;;6.50;99.90;;;;;;5033041;28;20257;-77
2021/12/04 11:38:17;;;;;;;0.60;0.60;;;6.50;99.90;;;;;;5033576;28;20208;-76
2021/12/04 11:41:01;;;;;;;0.50;0.40;;;6.50;99.90;;;;;;5033408;28;20254;-77
2021/12/04 11:43:34;;;;;;;0.50;0.35;;;6.50;99.90;;;;;;5033376;28;20249;-77
2021/12/04 11:46:17;;;;;;;0.50;0.50;;;6.50;99.90;;;;;;5034559;28;20220;-77
2021/12/04 11:48:44;;;;;;;0.50;0.40;;;6.60;99.90;;;;;;5033802;28;20179;-75
2021/12/04 11:51:15;;;;;;;0.50;0.40;;;6.50;99.90;;;;;;5032868;28;20203;-77
2021/12/04 11:53:42;;;;;;;0.50;0.40;;;6.60;99.90;;;;;;5033516;28;20788;-76
2021/12/04 11:56:15;;;;;;;0.73;0.73;;;6.70;99.90;;;;;;5032837;28;20242;-77
2021/12/04 11:58:43;;;;;;;0.50;0.40;;;6.60;99.90;;;;;;5033086;28;20695;-76
2021/12/04 12:01:30;;;;;;;0.50;0.40;;;6.60;99.90;;;;;;5033452;28;20572;-78
2021/12/04 12:03:59;;;;;;;0.50;0.40;;;6.60;99.90;;;;;;5032939;28;20258;-77
2021/12/04 12:06:31;;;;;;;0.50;0.40;;;6.60;99.90;;;;;;5033025;28;20568;-77
2021/12/04 12:09:09;;;;;;;0.50;0.40;;;6.50;99.90;;;;;;5032714;28;20202;-77
2021/12/04 12:11:36;;;;;;;2.15;0.63;;;6.60;99.90;;;;;;5032660;28;20641;-77
2021/12/04 12:14:08;;;;;;;0.63;0.60;;;6.70;99.90;;;;;;5032793;28;20702;-77
2021/12/04 12:16:42;;;;;;;0.50;0.50;;;6.60;99.90;;;;;;5032846;28;20675;-77
2021/12/04 12:19:15;;;;;;;0.50;0.40;;;6.60;99.90;;;;;;5032555;28;20203;-77
2021/12/04 12:21:49;;;;;;;0.50;0.50;;;6.60;99.90;;;;;;5032546;28;20208;-77
2021/12/04 12:27:15;;;;;;;0.50;0.40;;;6.10;99.90;;;;;;5031129;28;20286;-77
2021/12/04 12:32:45;;;;;;;0.50;0.40;;;6.10;99.90;;;;;;5032835;28;20247;-76
2021/12/04 12:38:09;;;;;;;0.50;0.40;;;6.20;99.90;;;;;;5032664;28;20301;-77
2021/12/04 12:40:36;;;;;;;0.50;0.40;;;6.20;99.90;;;;;;5032442;28;20195;-77
2021/12/04 12:43:16;;;;;;;0.50;0.40;;;6.30;99.90;;;;;;5032826;28;20211;-77
2021/12/04 12:45:54;;;;;;;0.50;0.40;;;6.40;99.90;;;;;;5031914;28;20216;-73
2021/12/04 12:48:22;;;;;;;0.80;0.80;;;6.50;99.90;;;;;;5032335;28;20251;-76
2021/12/04 12:50:49;;;;;;;0.50;0.40;;;6.70;99.90;;;;;;5032190;28;20203;-76
2021/12/04 12:53:19;;;;;;;0.50;0.40;;;6.70;99.90;;;;;;5032589;28;20216;-77
2021/12/04 12:55:48;;;;;;;0.70;0.60;;;6.80;99.90;;;;;;5031992;28;20219;-76
2021/12/04 12:58:19;;;;;;;0.88;0.88;;;6.70;99.90;;;;;;5031999;28;20220;-77
2021/12/04 13:11:58;;;;;;;0.50;0.50;;;6.80;99.90;;;;;;5031520;28;20313;-76
2021/12/04 13:14:28;;;;;;;1.17;1.13;;;6.80;99.90;;;;;;5032210;28;20217;-77
2021/12/04 13:17:02;;;;;;;0.50;0.40;;;6.70;99.90;;;;;;5031648;28;20210;-77
2021/12/04 13:19:31;;;;;;;0.50;0.40;;;6.60;99.90;;;;;;5031522;28;20186;-78
2021/12/04 13:22:00;;;;;;;0.50;0.40;;;6.40;99.90;;;;;;5031592;28;20206;-78
2021/12/04 13:24:28;;;;;;;0.50;0.40;;;6.40;99.90;;;;;;5031545;28;20739;-77
2021/12/04 13:26:58;;;;;;;0.50;0.40;;;6.30;99.90;;;;;;5031456;28;20214;-77
2021/12/04 13:29:28;;;;;;;1.20;1.10;;;6.30;99.90;;;;;;5031046;28;20736;-77
2021/12/04 13:31:56;;;;;;;0.50;0.40;;;6.20;99.90;;;;;;5031421;28;20191;-77
2021/12/04 13:34:25;;;;;;;0.50;0.40;;;6.10;99.90;;;;;;5031947;28;20231;-78
2021/12/04 13:36:54;;;;;;;1.42;1.33;;;6.00;99.90;;;;;;5032003;28;20211;-78
2021/12/04 13:39:22;;;;;;;0.50;0.40;;;5.90;99.90;;;;;;5031712;28;20568;-77
2021/12/04 13:41:51;;;;;;;1.70;1.60;;;5.80;99.90;;;;;;5031485;28;20203;-77
2021/12/04 13:44:19;;;;;;;0.52;0.40;;;5.80;99.90;;;;;;5031267;28;20554;-77
2021/12/04 13:46:48;;;;;;;0.40;0.32;;;5.70;99.90;;;;;;5031258;28;20198;-73
2021/12/04 13:49:19;;;;;;;0.50;0.47;;;5.60;99.90;;;;;;5030358;28;20201;-76
2021/12/04 13:51:54;;;;;;;0.40;0.40;;;5.60;99.90;;;;;;5031859;28;20569;-77
2021/12/04 13:54:21;;;;;;;0.88;0.88;;;5.50;99.90;;;;;;5031484;28;20222;-77
2021/12/04 13:56:48;;;;;;;0.40;0.40;;;5.40;99.90;;;;;;5031209;28;20719;-75
2021/12/04 13:59:15;;;;;;;0.40;0.40;;;5.30;99.90;;;;;;5030449;28;20199;-77
2021/12/04 14:01:43;;;;;;;0.40;0.30;;;5.30;99.90;;;;;;5031645;28;20262;-77
2021/12/04 14:04:16;;;;;;;0.40;0.30;;;5.30;99.90;;;;;;5031542;28;20536;-77
2021/12/04 14:06:49;;;;;;;0.80;0.80;;;5.30;99.90;;;;;;5031829;28;20186;-78
2021/12/04 14:09:17;;;;;;;0.40;0.40;;;5.30;99.90;;;;;;5031206;28;20196;-77
2021/12/04 14:11:44;;;;;;;0.40;0.30;;;5.40;99.90;;;;;;5031399;28;20348;-77
2021/12/04 14:14:12;;;;;;;0.40;0.30;;;5.30;99.90;;;;;;5031355;28;20585;-77
2021/12/04 14:16:39;;;;;;;0.40;0.30;;;5.30;99.90;;;;;;5031354;28;20195;-77
2021/12/04 14:19:15;;;;;;;3.08;1.50;;;5.30;99.90;;;;;;5032750;28;20200;-77
2021/12/04 14:21:42;;;;;;;0.40;0.38;;;5.30;99.90;;;;;;5034964;28;20198;-78
2021/12/04 14:24:09;;;;;;;0.40;0.30;;;5.40;99.90;;;;;;5035409;28;20215;-77
2021/12/04 14:26:37;;;;;;;0.40;0.30;;;5.40;99.90;;;;;;5035131;28;20203;-77
2021/12/04 14:29:04;;;;;;;0.52;0.52;;;5.40;99.90;;;;;;5034571;28;20207;-77
2021/12/04 14:31:32;;;;;;;0.40;0.30;;;5.30;99.90;;;;;;5035549;28;20513;-77
2021/12/04 14:33:59;;;;;;;0.40;0.30;;;5.30;99.90;;;;;;5034226;28;20223;-77
2021/12/04 14:36:26;;;;;;;0.40;0.40;;;5.30;99.90;;;;;;5035170;28;20279;-77
2021/12/04 14:38:53;;;;;;;0.40;0.30;;;5.30;99.90;;;;;;5034379;28;20198;-77
2021/12/04 14:41:20;;;;;;;0.40;0.30;;;5.30;99.90;;;;;;5035162;28;20632;-77
2021/12/04 14:43:49;;;;;;;0.40;0.30;;;5.30;99.90;;;;;;5034864;28;20218;-77
2021/12/04 14:46:18;;;;;;;0.50;0.40;;;5.30;99.90;;;;;;5034419;28;20199;-77
2021/12/04 14:48:49;;;;;;;0.40;0.40;;;5.30;99.90;;;;;;5034582;28;20687;-76
2021/12/04 14:51:19;;;;;;;0.40;0.40;;;5.30;99.90;;;;;;5034999;28;20560;-77
2021/12/04 14:53:48;;;;;;;0.40;0.30;;;5.30;99.90;;;;;;5034311;28;20191;-78
2021/12/04 14:56:16;;;;;;;0.40;0.30;;;5.30;99.90;;;;;;5035016;28;20246;-77
2021/12/04 14:58:43;;;;;;;0.40;0.30;;;5.20;99.90;;;;;;5033977;28;20226;-78
2021/12/04 15:01:13;;;;;;;0.68;0.68;;;5.20;99.90;;;;;;5034616;28;20199;-78
2021/12/04 15:03:43;;;;;;;0.40;0.30;;;5.20;99.90;;;;;;5034848;28;20282;-77
2021/12/04 15:06:13;;;;;;;0.55;0.55;;;5.20;99.90;;;;;;5033820;28;20205;-77
2021/12/04 15:08:43;;;;;;;2.25;1.75;;;5.10;99.90;;;;;;5034540;28;20571;-77
2021/12/04 15:11:13;;;;;;;1.25;1.08;;;5.10;99.90;;;;;;5034157;28;20202;-77
2021/12/04 15:13:50;;;;;;;0.95;0.95;;;5.00;99.90;;;;;;5034310;28;20249;-77
2021/12/04 15:16:23;;;;;;;0.40;0.40;;;4.90;99.90;;;;;;5034849;28;20184;-77
2021/12/04 15:18:50;;;;;;;0.50;0.50;;;4.90;99.90;;;;;;5034154;28;20276;-73
2021/12/04 15:21:18;;;;;;;2.75;1.63;;;4.90;99.90;;;;;;5033970;28;20720;-77
2021/12/04 15:23:47;;;;;;;0.40;0.40;;;4.80;99.90;;;;;;5034389;28;20660;-77
2021/12/04 15:26:19;;;;;;;0.70;0.70;;;4.80;99.90;;;;;;5034211;28;20560;-77
2021/12/04 15:28:49;;;;;;;0.88;0.88;;;4.80;99.90;;;;;;5033200;28;20253;-77